createdAt,value
2019-05-26T00:01:51.187Z,11.18
2019-05-26T00:04:20.485Z,11.17
2019-05-26T00:06:49.788Z,11.16
2019-05-26T00:09:19.167Z,11.12
2019-05-26T00:11:50.500Z,11.12
2019-05-26T00:14:19.793Z,11.06
2019-05-26T00:16:49.107Z,11.01
2019-05-26T00:19:18.416Z,10.99
2019-05-26T00:21:47.743Z,10.96
2019-05-26T00:24:35.939Z,10.92
2019-05-26T00:27:05.235Z,10.91
2019-05-26T00:29:34.533Z,10.89
2019-05-26T00:32:03.852Z,10.87
2019-05-26T00:34:34.038Z,10.85
2019-05-26T00:37:03.332Z,10.64
2019-05-26T00:39:32.609Z,10.80
2019-05-26T00:42:01.914Z,10.80
2019-05-26T00:44:31.206Z,10.80
2019-05-26T00:47:00.496Z,10.80
2019-05-26T00:49:29.790Z,10.76
2019-05-26T00:51:59.073Z,10.75
2019-05-26T00:54:28.425Z,10.72
2019-05-26T00:56:57.749Z,10.73
2019-05-26T00:59:27.006Z,10.70
2019-05-26T01:01:56.616Z,10.66
2019-05-26T01:04:39.307Z,10.64
2019-05-26T01:07:08.603Z,10.61
2019-05-26T01:09:37.923Z,10.63
2019-05-26T01:12:07.214Z,10.59
2019-05-26T01:14:36.538Z,10.56
2019-05-26T01:17:05.832Z,10.54
2019-05-26T01:19:54.175Z,10.54
2019-05-26T01:22:23.466Z,10.50
2019-05-26T01:24:52.759Z,10.47
2019-05-26T01:27:22.121Z,10.45
2019-05-26T01:29:51.458Z,10.44
2019-05-26T01:32:20.825Z,10.45
2019-05-26T01:35:09.363Z,10.46
2019-05-26T01:37:59.087Z,10.47
2019-05-26T01:43:52.011Z,10.40
2019-05-26T01:46:21.316Z,10.39
2019-05-26T01:48:50.604Z,10.41
2019-05-26T01:51:20.035Z,10.38
2019-05-26T01:53:49.331Z,10.38
2019-05-26T01:56:18.654Z,10.38
2019-05-26T01:58:47.942Z,10.35
2019-05-26T02:01:17.255Z,10.37
2019-05-26T02:03:46.569Z,10.39
2019-05-26T02:11:59.986Z,10.34
2019-05-26T02:14:29.268Z,10.34
2019-05-26T02:16:58.592Z,10.33
2019-05-26T02:19:27.884Z,10.35
2019-05-26T02:21:57.183Z,10.36
2019-05-26T02:24:26.494Z,10.35
2019-05-26T02:26:55.777Z,10.37
2019-05-26T02:29:25.077Z,10.36
2019-05-26T02:31:54.383Z,10.37
2019-05-26T02:34:23.666Z,10.38
2019-05-26T02:36:53.002Z,10.39
2019-05-26T02:39:22.283Z,10.38
2019-05-26T02:41:51.577Z,10.37
2019-05-26T02:44:20.889Z,10.37
2019-05-26T02:46:50.161Z,10.37
2019-05-26T02:49:19.451Z,10.36
2019-05-26T02:52:07.790Z,10.35
2019-05-26T02:54:37.097Z,10.36
2019-05-26T02:57:06.374Z,10.30
2019-05-26T02:59:35.718Z,10.37
2019-05-26T03:02:05.172Z,10.33
2019-05-26T03:04:34.466Z,10.30
2019-05-26T03:07:03.769Z,10.29
2019-05-26T03:15:49.083Z,10.23
2019-05-26T03:18:18.789Z,10.24
2019-05-26T03:20:48.182Z,10.24
2019-05-26T03:23:56.794Z,10.29
2019-05-26T03:26:46.722Z,10.28
2019-05-26T03:29:16.038Z,10.30
2019-05-26T03:31:45.330Z,10.26
2019-05-26T03:34:14.610Z,10.26
2019-05-26T03:36:43.938Z,10.25
2019-05-26T03:39:13.222Z,10.27
2019-05-26T03:41:42.511Z,10.26
2019-05-26T03:44:11.814Z,10.26
2019-05-26T03:49:29.351Z,10.26
2019-05-26T03:51:58.631Z,10.25
2019-05-26T03:54:27.929Z,10.25
2019-05-26T03:56:57.204Z,10.26
2019-05-26T03:59:26.501Z,10.27
2019-05-26T04:01:57.456Z,10.27
2019-05-26T04:04:26.797Z,10.29
2019-05-26T04:06:56.145Z,10.29
2019-05-26T04:12:13.711Z,10.32
2019-05-26T04:14:42.986Z,10.35
2019-05-26T04:17:12.268Z,10.36
2019-05-26T04:19:41.590Z,10.37
2019-05-26T04:24:59.163Z,10.40
2019-05-26T04:27:28.447Z,10.42
2019-05-26T04:29:57.730Z,10.42
2019-05-26T04:32:27.057Z,10.43
2019-05-26T04:34:56.353Z,10.43
2019-05-26T04:37:25.663Z,10.45
2019-05-26T04:39:54.959Z,10.49
2019-05-26T04:42:24.247Z,10.47
2019-05-26T04:45:12.677Z,10.50
2019-05-26T04:47:41.968Z,10.46
2019-05-26T04:50:11.383Z,10.45
2019-05-26T04:52:40.673Z,10.47
2019-05-26T04:55:10.288Z,10.51
2019-05-26T04:57:39.584Z,10.57
2019-05-26T05:00:48.207Z,10.57
2019-05-26T05:03:17.488Z,10.57
2019-05-26T05:05:46.792Z,10.57
2019-05-26T05:08:16.069Z,10.61
2019-05-26T05:10:45.349Z,10.61
2019-05-26T05:13:14.645Z,10.66
2019-05-26T05:15:43.927Z,10.67
2019-05-26T05:18:13.224Z,10.70
2019-05-26T05:20:42.831Z,10.71
2019-05-26T05:23:12.138Z,10.51
2019-05-26T05:25:41.432Z,10.80
2019-05-26T05:28:10.712Z,10.82
2019-05-26T05:30:40.012Z,10.80
2019-05-26T05:33:09.309Z,10.79
2019-05-26T05:35:38.659Z,10.86
2019-05-26T05:38:07.940Z,10.92
2019-05-26T05:40:37.249Z,11.01
2019-05-26T05:43:06.550Z,11.09
2019-05-26T05:45:35.872Z,11.18
2019-05-26T05:48:05.320Z,11.19
2019-05-26T05:50:34.599Z,11.22
2019-05-26T05:53:03.889Z,11.27
2019-05-26T05:55:33.162Z,11.26
2019-05-26T05:58:02.465Z,11.30
2019-05-26T06:00:31.758Z,11.39
2019-05-26T06:03:01.035Z,11.53
2019-05-26T06:05:30.332Z,11.64
2019-05-26T06:07:59.619Z,11.67
2019-05-26T06:10:28.929Z,11.82
2019-05-26T06:12:58.241Z,11.86
2019-05-26T06:15:27.517Z,11.91
2019-05-26T06:17:56.809Z,11.98
2019-05-26T06:20:26.091Z,12.01
2019-05-26T06:22:55.461Z,12.06
2019-05-26T06:25:24.745Z,12.06
2019-05-26T06:27:54.026Z,12.08
2019-05-26T06:31:02.651Z,12.04
2019-05-26T06:33:31.956Z,12.13
2019-05-26T06:36:20.238Z,12.30
2019-05-26T06:41:33.429Z,12.50
2019-05-26T06:43:55.343Z,12.45
2019-05-26T06:46:24.619Z,12.41
2019-05-26T06:48:53.904Z,12.44
2019-05-26T06:51:42.204Z,12.45
2019-05-26T06:54:11.507Z,12.35
2019-05-26T06:56:40.787Z,12.21
2019-05-26T07:01:44.759Z,12.24
2019-05-26T07:04:14.063Z,12.34
2019-05-26T07:06:43.369Z,12.44
2019-05-26T07:09:12.636Z,12.35
2019-05-26T07:11:55.605Z,12.27
2019-05-26T07:14:12.984Z,12.09
2019-05-26T07:16:44.355Z,12.40
2019-05-26T07:19:13.705Z,12.42
2019-05-26T07:24:31.319Z,12.47
2019-05-26T07:27:00.688Z,12.48
2019-05-26T07:29:29.986Z,12.64
2019-05-26T07:32:00.913Z,12.77
2019-05-26T07:34:30.381Z,12.67
2019-05-26T07:37:14.188Z,12.66
2019-05-26T07:42:19.307Z,12.70
2019-05-26T07:44:48.689Z,12.80
2019-05-26T07:53:15.223Z,12.66
2019-05-26T07:55:44.497Z,12.66
2019-05-26T07:58:13.791Z,12.70
2019-05-26T08:00:43.083Z,12.71
2019-05-26T08:03:12.464Z,12.73
2019-05-26T08:05:41.754Z,12.76
2019-05-26T08:08:13.092Z,12.95
2019-05-26T08:10:42.116Z,12.96
2019-05-26T08:13:11.402Z,13.08
2019-05-26T08:15:40.699Z,13.24
2019-05-26T08:18:10.010Z,13.15
2019-05-26T08:23:48.899Z,13.02
2019-05-26T08:26:37.189Z,13.06
2019-05-26T08:29:06.528Z,13.01
2019-05-26T08:31:35.821Z,13.09
2019-05-26T08:34:05.146Z,13.20
2019-05-26T08:36:34.429Z,13.32
2019-05-26T08:41:58.455Z,13.57
2019-05-26T08:44:27.753Z,13.59
2019-05-26T08:46:57.037Z,13.62
2019-05-26T08:49:45.291Z,13.50
2019-05-26T08:52:14.607Z,13.48
2019-05-26T08:54:43.899Z,13.40
2019-05-26T08:57:13.224Z,13.40
2019-05-26T08:59:44.233Z,13.53
2019-05-26T09:02:13.562Z,13.58
2019-05-26T09:04:42.862Z,13.72
2019-05-26T09:07:12.158Z,14.06
2019-05-26T09:09:41.515Z,14.21
2019-05-26T09:12:29.899Z,14.33
2019-05-26T09:14:59.233Z,14.21
2019-05-26T09:17:28.554Z,13.88
2019-05-26T09:19:57.973Z,13.91
2019-05-26T09:22:27.331Z,13.88
2019-05-26T09:24:56.678Z,13.93
2019-05-26T09:27:25.980Z,13.84
2019-05-26T09:29:55.310Z,13.65
2019-05-26T09:32:24.644Z,13.64
2019-05-26T09:34:54.068Z,13.63
2019-05-26T09:37:23.619Z,13.68
2019-05-26T09:39:52.955Z,13.80
2019-05-26T09:42:22.587Z,14.01
2019-05-26T09:44:53.363Z,14.20
2019-05-26T09:47:22.708Z,14.32
2019-05-26T09:49:52.036Z,14.19
2019-05-26T09:52:21.403Z,13.92
2019-05-26T09:54:50.734Z,14.03
2019-05-26T09:57:20.114Z,14.23
2019-05-26T09:59:49.470Z,14.42
2019-05-26T10:02:18.851Z,14.30
2019-05-26T10:04:48.212Z,14.19
2019-05-26T10:07:17.609Z,14.16
2019-05-26T10:10:05.812Z,14.16
2019-05-26T10:15:09.811Z,14.00
2019-05-26T10:17:39.195Z,13.93
2019-05-26T10:20:47.879Z,14.03
2019-05-26T10:23:17.226Z,14.09
2019-05-26T10:25:46.557Z,13.83
2019-05-26T10:28:15.932Z,13.85
2019-05-26T10:30:45.259Z,14.01
2019-05-26T10:36:02.927Z,14.01
2019-05-26T10:38:32.242Z,14.06
2019-05-26T10:41:01.562Z,14.26
2019-05-26T10:43:44.506Z,14.33
2019-05-26T10:46:01.963Z,14.27
2019-05-26T10:48:31.289Z,14.26
2019-05-26T10:51:00.605Z,14.09
2019-05-26T10:53:29.917Z,13.79
2019-05-26T10:55:59.220Z,13.92
2019-05-26T10:58:28.535Z,14.07
2019-05-26T11:00:57.855Z,13.80
2019-05-26T11:03:27.165Z,13.97
2019-05-26T11:05:56.493Z,13.54
2019-05-26T11:08:25.870Z,13.77
2019-05-26T11:10:55.181Z,13.65
2019-05-26T11:13:24.494Z,13.79
2019-05-26T11:15:53.830Z,14.11
2019-05-26T11:18:23.148Z,14.28
2019-05-26T11:20:52.565Z,14.40
2019-05-26T11:23:21.922Z,14.40
2019-05-26T11:25:51.276Z,14.37
2019-05-26T11:28:20.637Z,14.39
2019-05-26T11:30:49.949Z,14.47
2019-05-26T11:33:19.291Z,14.26
2019-05-26T11:35:48.621Z,14.45
2019-05-26T11:38:17.959Z,14.47
2019-05-26T11:40:47.798Z,14.47
2019-05-26T11:43:18.378Z,14.53
2019-05-26T11:45:47.879Z,14.65
2019-05-26T11:48:17.202Z,14.48
2019-05-26T11:50:46.563Z,14.56
2019-05-26T11:53:16.027Z,14.72
2019-05-26T11:55:45.393Z,14.80
2019-05-26T11:58:14.828Z,14.82
2019-05-26T12:03:34.139Z,14.65
2019-05-26T12:06:03.476Z,14.64
2019-05-26T12:08:32.798Z,14.70
2019-05-26T12:11:02.186Z,14.83
2019-05-26T12:13:31.496Z,14.81
2019-05-26T12:16:00.921Z,14.67
2019-05-26T12:18:30.245Z,14.67
2019-05-26T12:20:59.590Z,14.66
2019-05-26T12:23:28.953Z,14.63
2019-05-26T12:25:58.271Z,14.61
2019-05-26T12:28:27.604Z,14.72
2019-05-26T12:30:56.997Z,14.78
2019-05-26T12:33:26.309Z,14.76
2019-05-26T12:35:55.728Z,14.85
2019-05-26T12:38:25.070Z,14.94
2019-05-26T12:40:54.560Z,14.97
2019-05-26T12:43:23.871Z,14.92
2019-05-26T12:45:53.235Z,14.99
2019-05-26T12:48:22.603Z,14.96
2019-05-26T12:50:51.962Z,15.07
2019-05-26T12:53:21.358Z,15.04
2019-05-26T12:55:50.682Z,15.02
2019-05-26T12:58:20.045Z,15.08
2019-05-26T13:00:53.850Z,15.15
2019-05-26T13:03:20.451Z,15.10
2019-05-26T13:05:49.809Z,15.11
2019-05-26T13:11:07.444Z,15.17
2019-05-26T13:13:37.080Z,15.17
2019-05-26T13:16:45.743Z,15.29
2019-05-26T13:19:15.084Z,15.30
2019-05-26T13:21:44.416Z,15.21
2019-05-26T13:24:14.002Z,15.29
2019-05-26T13:26:43.305Z,15.17
2019-05-26T13:29:12.622Z,15.21
2019-05-26T13:31:44.048Z,15.25
2019-05-26T13:36:47.949Z,15.46
2019-05-26T13:39:17.287Z,15.55
2019-05-26T13:41:46.619Z,15.51
2019-05-26T13:44:34.908Z,15.57
2019-05-26T13:47:04.221Z,15.38
2019-05-26T13:49:34.006Z,15.28
2019-05-26T13:54:38.056Z,15.00
2019-05-26T13:57:07.984Z,15.27
2019-05-26T13:59:37.277Z,15.29
2019-05-26T14:05:02.134Z,15.16
2019-05-26T14:07:31.448Z,15.06
2019-05-26T14:10:00.841Z,15.04
2019-05-26T14:12:30.158Z,15.11
2019-05-26T14:14:59.523Z,14.90
2019-05-26T14:18:08.154Z,14.93
2019-05-26T14:23:39.503Z,14.89
2019-05-26T14:26:08.830Z,15.02
2019-05-26T14:28:38.180Z,14.85
2019-05-26T14:31:07.491Z,15.00
2019-05-26T14:33:36.807Z,14.88
2019-05-26T14:36:06.210Z,14.97
2019-05-26T14:38:43.230Z,14.96
2019-05-26T14:41:06.620Z,14.99
2019-05-26T14:46:24.284Z,15.17
2019-05-26T14:48:53.602Z,15.33
2019-05-26T14:51:22.923Z,15.41
2019-05-26T14:53:52.256Z,15.58
2019-05-26T14:56:21.599Z,15.48
2019-05-26T14:58:50.954Z,15.45
2019-05-26T15:01:20.316Z,15.38
2019-05-26T15:03:49.752Z,15.36
2019-05-26T15:06:19.066Z,15.38
2019-05-26T15:08:48.455Z,15.42
2019-05-26T15:11:17.828Z,15.41
2019-05-26T15:13:47.141Z,15.50
2019-05-26T15:19:12.539Z,15.56
2019-05-26T15:21:41.885Z,15.52
2019-05-26T15:24:11.177Z,15.57
2019-05-26T15:26:40.491Z,15.27
2019-05-26T15:29:09.786Z,15.22
2019-05-26T15:31:39.104Z,15.26
2019-05-26T15:34:08.398Z,15.43
2019-05-26T15:39:26.040Z,15.50
2019-05-26T15:45:04.176Z,15.47
2019-05-26T15:47:33.509Z,15.46
2019-05-26T15:50:02.823Z,15.49
2019-05-26T15:52:51.095Z,15.47
2019-05-26T15:55:20.423Z,15.41
2019-05-26T15:57:49.789Z,15.54
2019-05-26T16:00:19.206Z,15.59
2019-05-26T16:02:48.554Z,15.49
2019-05-26T16:05:17.967Z,15.46
2019-05-26T16:07:47.295Z,15.48
2019-05-26T16:10:55.955Z,15.47
2019-05-26T16:13:25.339Z,15.44
2019-05-26T16:15:54.619Z,15.28
2019-05-26T16:18:23.964Z,15.22
2019-05-26T16:21:02.685Z,15.24
2019-05-26T16:23:24.299Z,15.29
2019-05-26T16:25:53.610Z,15.30
2019-05-26T16:28:22.947Z,15.28
2019-05-26T16:30:52.274Z,15.30
2019-05-26T16:33:21.593Z,15.25
2019-05-26T16:35:50.996Z,15.23
2019-05-26T16:38:20.326Z,15.04
2019-05-26T16:40:49.655Z,15.16
2019-05-26T16:43:38.022Z,15.11
2019-05-26T16:46:07.604Z,15.05
2019-05-26T16:48:56.068Z,14.96
2019-05-26T16:54:13.650Z,15.09
2019-05-26T16:56:43.014Z,15.15
2019-05-26T16:59:12.357Z,15.02
2019-05-26T17:02:03.033Z,15.00
2019-05-26T17:04:32.412Z,14.96
2019-05-26T17:07:01.750Z,14.75
2019-05-26T17:09:31.348Z,14.62
2019-05-26T17:12:00.839Z,14.37
2019-05-26T17:14:30.322Z,14.41
2019-05-26T17:17:13.453Z,14.48
2019-05-26T17:19:31.283Z,14.62
2019-05-26T17:24:48.891Z,14.51
2019-05-26T17:27:18.216Z,14.43
2019-05-26T17:33:06.232Z,14.44
2019-05-26T17:35:35.575Z,14.45
2019-05-26T17:38:04.937Z,14.55
2019-05-26T17:40:34.356Z,14.48
2019-05-26T17:43:03.784Z,14.38
2019-05-26T17:45:33.128Z,14.35
2019-05-26T17:48:02.444Z,14.31
2019-05-26T17:50:31.749Z,14.26
2019-05-26T17:53:20.223Z,14.29
2019-05-26T17:55:49.521Z,14.29
2019-05-26T17:58:18.938Z,14.22
2019-05-26T18:00:48.250Z,14.17
2019-05-26T18:03:17.603Z,14.14
2019-05-26T18:05:46.916Z,14.08
2019-05-26T18:08:16.285Z,13.95
2019-05-26T18:10:45.603Z,13.83
2019-05-26T18:13:14.984Z,13.76
2019-05-26T18:15:44.284Z,13.67
2019-05-26T18:18:13.634Z,13.61
2019-05-26T18:21:02.040Z,13.56
2019-05-26T18:23:31.373Z,13.47
2019-05-26T18:26:00.720Z,13.38
2019-05-26T18:28:30.064Z,13.24
2019-05-26T18:30:59.366Z,13.18
2019-05-26T18:33:28.720Z,13.10
2019-05-26T18:36:37.345Z,13.04
2019-05-26T18:39:08.581Z,13.00
2019-05-26T18:41:37.939Z,12.94
2019-05-26T18:44:07.440Z,12.87
2019-05-26T18:46:36.723Z,12.81
2019-05-26T18:49:06.089Z,12.72
2019-05-26T18:51:35.432Z,12.63
2019-05-26T18:54:04.857Z,12.59
2019-05-26T18:56:34.159Z,12.53
2019-05-26T18:59:03.556Z,12.50
2019-05-26T19:01:33.125Z,12.46
2019-05-26T19:04:02.468Z,12.40
2019-05-26T19:06:31.757Z,12.34
2019-05-26T19:09:01.045Z,12.30
2019-05-26T19:11:30.368Z,12.26
2019-05-26T19:13:59.665Z,12.20
2019-05-26T19:16:29.068Z,12.16
2019-05-26T19:18:58.372Z,12.13
2019-05-26T19:21:46.720Z,12.10
2019-05-26T19:24:16.038Z,12.08
2019-05-26T19:26:45.325Z,12.08
2019-05-26T19:29:33.582Z,12.08
2019-05-26T19:32:21.826Z,12.07
2019-05-26T19:34:51.179Z,12.05
2019-05-26T19:37:20.459Z,11.99
2019-05-26T19:39:49.798Z,11.94
2019-05-26T19:44:55.186Z,11.84
2019-05-26T19:47:24.463Z,11.80
2019-05-26T19:49:53.807Z,11.77
2019-05-26T19:52:23.118Z,11.70
2019-05-26T19:54:52.432Z,11.66
2019-05-26T19:57:21.806Z,11.62
2019-05-26T19:59:51.101Z,11.55
2019-05-26T20:02:20.413Z,11.48
2019-05-26T20:04:49.726Z,11.41
2019-05-26T20:07:19.118Z,11.37
2019-05-26T20:09:48.377Z,11.30
2019-05-26T20:12:17.670Z,11.27
2019-05-26T20:14:46.959Z,11.22
2019-05-26T20:17:16.373Z,11.16
2019-05-26T20:19:45.713Z,11.12
2019-05-26T20:22:33.962Z,11.08
2019-05-26T20:25:03.267Z,11.06
2019-05-26T20:27:32.548Z,11.02
2019-05-26T20:30:01.909Z,10.99
2019-05-26T20:32:31.203Z,10.92
2019-05-26T20:35:00.508Z,10.87
2019-05-26T20:37:29.797Z,10.83
2019-05-26T20:39:59.101Z,10.76
2019-05-26T20:42:47.361Z,10.71
2019-05-26T20:48:18.180Z,10.57
2019-05-26T20:50:47.523Z,10.46
2019-05-26T20:53:16.789Z,10.41
2019-05-26T20:55:46.075Z,10.35
2019-05-26T20:58:15.366Z,10.33
2019-05-26T21:00:44.666Z,10.32
2019-05-26T21:03:14.063Z,10.29
2019-05-26T21:05:43.352Z,10.25
2019-05-26T21:08:12.710Z,10.24
2019-05-26T21:11:00.940Z,10.21
2019-05-26T21:13:30.223Z,10.19
2019-05-26T21:15:59.529Z,10.13
2019-05-26T21:18:28.804Z,10.03
2019-05-26T21:21:17.059Z,10.00
2019-05-26T21:23:47.408Z,9.95
2019-05-26T21:26:16.702Z,9.92
2019-05-26T21:28:46.544Z,9.91
2019-05-26T21:31:15.824Z,9.89
2019-05-26T21:33:45.120Z,9.89
2019-05-26T21:36:33.457Z,9.90
2019-05-26T21:39:02.784Z,9.88
2019-05-26T21:41:32.058Z,9.86
2019-05-26T21:44:01.370Z,9.84
2019-05-26T21:46:30.673Z,9.81
2019-05-26T21:48:59.953Z,9.76
2019-05-26T21:54:19.841Z,9.69
2019-05-26T21:56:49.123Z,9.64
2019-05-26T21:59:18.386Z,9.59
2019-05-26T22:01:47.666Z,9.56
2019-05-26T22:04:16.932Z,9.53
2019-05-26T22:09:20.726Z,9.50
2019-05-26T22:11:50.000Z,9.52
2019-05-26T22:14:38.328Z,9.52
2019-05-26T22:17:07.632Z,9.55
2019-05-26T22:19:36.922Z,9.57
2019-05-26T22:22:06.212Z,9.60
2019-05-26T22:24:35.515Z,9.63
2019-05-26T22:27:04.762Z,9.66
2019-05-26T22:29:34.060Z,9.68
2019-05-26T22:32:03.334Z,9.70
2019-05-26T22:34:32.625Z,9.71
2019-05-26T22:42:24.765Z,9.71
2019-05-26T22:44:54.052Z,9.71
2019-05-26T22:47:23.324Z,9.71
2019-05-26T22:49:52.597Z,9.72
2019-05-26T22:52:21.892Z,9.71
2019-05-26T22:54:51.164Z,9.64
2019-05-26T22:57:20.506Z,9.63
2019-05-26T22:59:49.785Z,9.58
2019-05-26T23:02:19.284Z,9.58
2019-05-26T23:04:48.529Z,9.60
2019-05-26T23:07:17.808Z,9.63
2019-05-26T23:09:47.097Z,9.60
2019-05-26T23:12:16.382Z,9.63
2019-05-26T23:14:45.641Z,9.67
2019-05-26T23:17:14.939Z,9.65
2019-05-26T23:19:44.202Z,9.66
2019-05-26T23:22:13.483Z,9.67
2019-05-26T23:24:42.770Z,9.66
2019-05-26T23:30:00.317Z,9.62
2019-05-26T23:37:40.972Z,9.53
2019-05-26T23:40:10.385Z,9.55
2019-05-26T23:42:39.665Z,9.56
2019-05-26T23:45:48.274Z,9.56
2019-05-26T23:48:17.569Z,9.53
2019-05-26T23:50:46.859Z,9.49
2019-05-26T23:53:16.144Z,9.48
2019-05-26T23:55:45.417Z,9.47
2019-05-26T23:58:14.702Z,9.44
